AIC102 OMDB-VABB
Flight info
| Callsign | AIC102 |
|---|---|
| Flight time | 2h 26m |
| Altitude | 39000 |
| Route | IVURO M677 LALDO B505 NADSO A777 VAXIM L301 KARKU M638 EXOLU POKON2A |
| Aircraft | A359/H-SDE2E3GHIJ3J4J5LM1ORWXY/LB1D1 |
Departure
| Time | 2026-04-25 05:38 |
|---|---|
| Airport | Dubai International Airport (OMDB) |
Arrival
| Time | 2026-04-25 08:05 |
|---|---|
| Airport | Chhatrapati Shivaji Maharaj International Airport (VABB) |
| Time | Latitude | Longitude | Altitude | Speed | Heading |
|---|---|---|---|---|---|
| 2026-04-25 05:15 | 25.24447 | 55.37226 | 28 ft | 0 kts | 210° |
| 2026-04-25 05:25 | 25.24455 | 55.37231 | 27 ft | 3 kts | 210° |
| 2026-04-25 05:25 | 25.24462 | 55.37235 | 28 ft | 3 kts | 210° |
| 2026-04-25 05:25 | 25.24478 | 55.37246 | 26 ft | 3 kts | 205° |
| 2026-04-25 05:25 | 25.24498 | 55.37251 | 27 ft | 3 kts | 161° |
| 2026-04-25 05:26 | 25.24515 | 55.37240 | 25 ft | 1 kts | 126° |
| 2026-04-25 05:30 | 25.24513 | 55.37245 | 25 ft | 1 kts | 121° |
| 2026-04-25 05:31 | 25.24507 | 55.37258 | 26 ft | 4 kts | 115° |
| 2026-04-25 05:31 | 25.24492 | 55.37297 | 28 ft | 8 kts | 114° |
| 2026-04-25 05:31 | 25.24465 | 55.37362 | 28 ft | 11 kts | 114° |
| 2026-04-25 05:31 | 25.24438 | 55.37452 | 28 ft | 14 kts | 100° |
| 2026-04-25 05:32 | 25.24423 | 55.37568 | 28 ft | 17 kts | 99° |
| 2026-04-25 05:32 | 25.24380 | 55.37695 | 28 ft | 19 kts | 118° |
| 2026-04-25 05:32 | 25.24342 | 55.37770 | 28 ft | 0 kts | 119° |
| 2026-04-25 05:32 | 25.24341 | 55.37771 | 28 ft | 0 kts | 120° |
| 2026-04-25 05:33 | 25.24317 | 55.37787 | 28 ft | 15 kts | 161° |
| 2026-04-25 05:33 | 25.24187 | 55.37882 | 28 ft | 25 kts | 127° |
| 2026-04-25 05:33 | 25.24085 | 55.38049 | 28 ft | 27 kts | 121° |
| 2026-04-25 05:33 | 25.23981 | 55.38233 | 28 ft | 29 kts | 122° |
| 2026-04-25 05:34 | 25.23898 | 55.38381 | 28 ft | 19 kts | 122° |
| 2026-04-25 05:34 | 25.23884 | 55.38516 | 28 ft | 19 kts | 74° |
| 2026-04-25 05:34 | 25.23848 | 55.38654 | 28 ft | 20 kts | 120° |
| 2026-04-25 05:34 | 25.23772 | 55.38795 | 28 ft | 23 kts | 121° |
| 2026-04-25 05:35 | 25.23687 | 55.38952 | 28 ft | 25 kts | 121° |
| 2026-04-25 05:35 | 25.23609 | 55.39094 | 28 ft | 23 kts | 121° |
| 2026-04-25 05:35 | 25.23520 | 55.39255 | 28 ft | 26 kts | 122° |
| 2026-04-25 05:35 | 25.23467 | 55.39365 | 28 ft | 8 kts | 100° |
| 2026-04-25 05:36 | 25.23486 | 55.39430 | 28 ft | 10 kts | 52° |
| 2026-04-25 05:36 | 25.23554 | 55.39474 | 28 ft | 12 kts | 7° |
| 2026-04-25 05:36 | 25.23623 | 55.39422 | 28 ft | 13 kts | 304° |
| 2026-04-25 05:36 | 25.23629 | 55.39413 | 28 ft | 0 kts | 302° |
| 2026-04-25 05:37 | 25.23630 | 55.39410 | 28 ft | 0 kts | 302° |
| 2026-04-25 05:37 | 25.23631 | 55.39410 | 28 ft | 0 kts | 302° |
| 2026-04-25 05:37 | 25.23667 | 55.39348 | 28 ft | 40 kts | 302° |
| 2026-04-25 05:38 | 25.23957 | 55.38825 | 28 ft | 117 kts | 301° |
| 2026-04-25 05:38 | 25.24504 | 55.37843 | 29 ft | 181 kts | 301° |
| 2026-04-25 05:38 | 25.25212 | 55.36539 | 493 ft | 200 kts | 301° |
| 2026-04-25 05:38 | 25.25885 | 55.35219 | 1406 ft | 196 kts | 299° |
| 2026-04-25 05:39 | 25.26540 | 55.33858 | 2292 ft | 204 kts | 298° |
| 2026-04-25 05:39 | 25.27183 | 55.32445 | 3160 ft | 206 kts | 297° |
| 2026-04-25 05:39 | 25.27993 | 55.31131 | 3797 ft | 213 kts | 313° |
| 2026-04-25 05:39 | 25.29175 | 55.30053 | 4378 ft | 226 kts | 328° |
| 2026-04-25 05:40 | 25.30662 | 55.29461 | 5177 ft | 231 kts | 352° |
| 2026-04-25 05:40 | 25.32286 | 55.29424 | 6027 ft | 236 kts | 360° |
| 2026-04-25 05:40 | 25.33941 | 55.29500 | 6792 ft | 241 kts | 360° |
| 2026-04-25 05:40 | 25.35639 | 55.29576 | 7595 ft | 247 kts | 360° |
| 2026-04-25 05:41 | 25.37371 | 55.29640 | 8429 ft | 252 kts | 359° |
| 2026-04-25 05:41 | 25.39132 | 55.29879 | 9287 ft | 260 kts | 14° |
| 2026-04-25 05:41 | 25.40719 | 55.30904 | 9982 ft | 277 kts | 42° |
| 2026-04-25 05:41 | 25.42057 | 55.32569 | 10369 ft | 302 kts | 51° |
| 2026-04-25 05:42 | 25.43404 | 55.34476 | 10749 ft | 326 kts | 51° |
| 2026-04-25 05:42 | 25.44848 | 55.36515 | 11119 ft | 347 kts | 51° |
| 2026-04-25 05:42 | 25.46369 | 55.38634 | 11520 ft | 364 kts | 51° |
| 2026-04-25 05:42 | 25.47971 | 55.40894 | 12149 ft | 373 kts | 54° |
| 2026-04-25 05:43 | 25.49221 | 55.43428 | 12916 ft | 378 kts | 69° |
| 2026-04-25 05:43 | 25.49751 | 55.46238 | 13665 ft | 382 kts | 89° |
| 2026-04-25 05:43 | 25.49416 | 55.49148 | 14343 ft | 384 kts | 104° |
| 2026-04-25 05:43 | 25.48728 | 55.52022 | 15004 ft | 388 kts | 107° |
| 2026-04-25 05:44 | 25.47997 | 55.54920 | 15646 ft | 393 kts | 107° |
| 2026-04-25 05:44 | 25.47260 | 55.57846 | 16295 ft | 397 kts | 107° |
| 2026-04-25 05:44 | 25.46517 | 55.60805 | 16954 ft | 401 kts | 107° |
| 2026-04-25 05:44 | 25.45769 | 55.63794 | 17607 ft | 405 kts | 107° |
| 2026-04-25 05:45 | 25.45014 | 55.66811 | 18252 ft | 409 kts | 107° |
| 2026-04-25 05:45 | 25.44252 | 55.69857 | 18807 ft | 413 kts | 107° |
| 2026-04-25 05:45 | 25.43478 | 55.72946 | 19348 ft | 419 kts | 107° |
| 2026-04-25 05:45 | 25.42697 | 55.76063 | 19912 ft | 423 kts | 107° |
| 2026-04-25 05:46 | 25.41905 | 55.79222 | 20492 ft | 428 kts | 107° |
| 2026-04-25 05:46 | 25.41104 | 55.82413 | 21063 ft | 433 kts | 107° |
| 2026-04-25 05:46 | 25.40295 | 55.85634 | 21631 ft | 438 kts | 107° |
| 2026-04-25 05:46 | 25.39473 | 55.88902 | 22206 ft | 442 kts | 107° |
| 2026-04-25 05:47 | 25.38644 | 55.92193 | 22781 ft | 447 kts | 107° |
| 2026-04-25 05:47 | 25.37806 | 55.95520 | 23335 ft | 452 kts | 107° |
| 2026-04-25 05:47 | 25.36957 | 55.98886 | 23839 ft | 457 kts | 107° |
| 2026-04-25 05:47 | 25.36098 | 56.02286 | 24358 ft | 461 kts | 107° |
| 2026-04-25 05:48 | 25.35231 | 56.05718 | 24884 ft | 466 kts | 107° |
| 2026-04-25 05:48 | 25.34354 | 56.09181 | 25412 ft | 470 kts | 107° |
| 2026-04-25 05:48 | 25.33468 | 56.12684 | 25950 ft | 475 kts | 107° |
| 2026-04-25 05:48 | 25.32750 | 56.16258 | 26465 ft | 480 kts | 99° |
| 2026-04-25 05:49 | 25.32302 | 56.19942 | 27004 ft | 485 kts | 97° |
| 2026-04-25 05:49 | 25.31965 | 56.23659 | 27537 ft | 489 kts | 96° |
| 2026-04-25 05:49 | 25.31676 | 56.27424 | 28058 ft | 493 kts | 95° |
| 2026-04-25 05:49 | 25.31399 | 56.31222 | 28553 ft | 498 kts | 95° |
| 2026-04-25 05:50 | 25.31113 | 56.35055 | 29037 ft | 503 kts | 95° |
| 2026-04-25 05:50 | 25.30810 | 56.38929 | 29496 ft | 508 kts | 96° |
| 2026-04-25 05:50 | 25.30537 | 56.42836 | 29969 ft | 513 kts | 94° |
| 2026-04-25 05:50 | 25.30390 | 56.46787 | 30380 ft | 517 kts | 92° |
| 2026-04-25 05:51 | 25.30308 | 56.50767 | 30814 ft | 519 kts | 91° |
| 2026-04-25 05:51 | 25.30263 | 56.53415 | 31092 ft | 521 kts | 91° |
| 2026-04-25 05:51 | 25.30082 | 56.57412 | 31538 ft | 522 kts | 97° |
| 2026-04-25 05:51 | 25.29397 | 56.61339 | 31986 ft | 521 kts | 107° |
| 2026-04-25 05:52 | 25.28225 | 56.65145 | 32360 ft | 523 kts | 112° |
| 2026-04-25 05:52 | 25.26900 | 56.68891 | 32714 ft | 525 kts | 114° |
| 2026-04-25 05:52 | 25.25494 | 56.72627 | 33070 ft | 528 kts | 115° |
| 2026-04-25 05:52 | 25.24051 | 56.76366 | 33434 ft | 530 kts | 115° |
| 2026-04-25 05:53 | 25.22601 | 56.80101 | 33935 ft | 528 kts | 115° |
| 2026-04-25 05:53 | 25.21160 | 56.83828 | 34377 ft | 527 kts | 115° |
| 2026-04-25 05:53 | 25.19725 | 56.87558 | 34679 ft | 529 kts | 115° |
| 2026-04-25 05:53 | 25.18290 | 56.91308 | 34973 ft | 531 kts | 114° |
| 2026-04-25 05:54 | 25.16853 | 56.95074 | 35313 ft | 532 kts | 114° |
| 2026-04-25 05:54 | 25.15421 | 56.98831 | 35636 ft | 533 kts | 114° |
| 2026-04-25 05:54 | 25.12543 | 57.06378 | 36329 ft | 533 kts | 114° |
| 2026-04-25 05:55 | 25.11105 | 57.10145 | 36630 ft | 534 kts | 114° |
| 2026-04-25 05:55 | 25.09662 | 57.13918 | 36967 ft | 534 kts | 114° |
| 2026-04-25 05:55 | 25.08220 | 57.17686 | 37352 ft | 533 kts | 114° |
| 2026-04-25 05:55 | 25.06776 | 57.21456 | 37639 ft | 533 kts | 114° |
| 2026-04-25 05:56 | 25.05331 | 57.25223 | 37932 ft | 534 kts | 114° |
| 2026-04-25 05:56 | 25.03879 | 57.29005 | 38233 ft | 535 kts | 114° |
| 2026-04-25 05:56 | 25.02432 | 57.32771 | 38519 ft | 535 kts | 114° |
| 2026-04-25 05:56 | 25.00979 | 57.36547 | 38759 ft | 535 kts | 114° |
| 2026-04-25 05:57 | 24.99521 | 57.40335 | 38912 ft | 536 kts | 114° |
| 2026-04-25 05:57 | 24.98068 | 57.44107 | 38914 ft | 534 kts | 114° |
| 2026-04-25 05:57 | 24.95164 | 57.51637 | 38923 ft | 533 kts | 114° |
| 2026-04-25 05:58 | 24.92259 | 57.59154 | 38922 ft | 533 kts | 114° |
| 2026-04-25 05:58 | 24.89350 | 57.66667 | 38925 ft | 533 kts | 114° |
| 2026-04-25 05:59 | 24.86441 | 57.74169 | 38919 ft | 532 kts | 114° |
| 2026-04-25 05:59 | 24.83551 | 57.81608 | 38920 ft | 532 kts | 114° |
| 2026-04-25 06:00 | 24.80501 | 57.89037 | 38933 ft | 532 kts | 116° |
| 2026-04-25 06:00 | 24.77240 | 57.96351 | 38921 ft | 532 kts | 117° |
| 2026-04-25 06:01 | 24.73988 | 58.03642 | 38920 ft | 530 kts | 117° |
| 2026-04-25 06:01 | 24.70770 | 58.10945 | 38919 ft | 530 kts | 116° |
| 2026-04-25 06:02 | 24.67566 | 58.18254 | 38919 ft | 530 kts | 116° |
| 2026-04-25 06:02 | 24.64362 | 58.25557 | 38920 ft | 531 kts | 116° |
| 2026-04-25 06:03 | 24.61143 | 58.32879 | 38920 ft | 532 kts | 116° |
| 2026-04-25 06:03 | 24.57917 | 58.40201 | 38917 ft | 532 kts | 116° |
| 2026-04-25 06:04 | 24.54686 | 58.47523 | 38916 ft | 532 kts | 116° |
| 2026-04-25 06:04 | 24.51475 | 58.54787 | 38917 ft | 532 kts | 116° |
| 2026-04-25 06:05 | 24.48242 | 58.62091 | 38908 ft | 532 kts | 116° |
| 2026-04-25 06:05 | 24.44996 | 58.69409 | 38916 ft | 533 kts | 116° |
| 2026-04-25 06:06 | 24.41750 | 58.76720 | 38911 ft | 533 kts | 116° |
| 2026-04-25 06:06 | 24.38500 | 58.84044 | 38914 ft | 533 kts | 116° |
| 2026-04-25 06:07 | 24.35245 | 58.91353 | 38914 ft | 533 kts | 116° |
| 2026-04-25 06:07 | 24.31988 | 58.98655 | 38916 ft | 533 kts | 116° |
| 2026-04-25 06:08 | 24.28728 | 59.05956 | 38915 ft | 533 kts | 116° |
| 2026-04-25 06:08 | 24.25467 | 59.13248 | 38919 ft | 532 kts | 116° |
| 2026-04-25 06:09 | 24.22207 | 59.20528 | 38915 ft | 532 kts | 116° |
| 2026-04-25 06:09 | 24.18942 | 59.27808 | 38916 ft | 532 kts | 116° |
| 2026-04-25 06:10 | 24.15676 | 59.35077 | 38911 ft | 532 kts | 116° |
| 2026-04-25 06:10 | 24.12408 | 59.42339 | 38907 ft | 531 kts | 116° |
| 2026-04-25 06:11 | 24.09161 | 59.49545 | 38913 ft | 531 kts | 116° |
| 2026-04-25 06:11 | 24.05892 | 59.56799 | 38916 ft | 531 kts | 116° |
| 2026-04-25 06:12 | 24.02616 | 59.64040 | 38909 ft | 531 kts | 116° |
| 2026-04-25 06:12 | 23.99339 | 59.71273 | 38916 ft | 530 kts | 116° |
| 2026-04-25 06:13 | 23.96063 | 59.78495 | 38917 ft | 530 kts | 116° |
| 2026-04-25 06:14 | 23.91144 | 59.89322 | 38917 ft | 531 kts | 116° |
| 2026-04-25 06:14 | 23.87860 | 59.96538 | 38916 ft | 529 kts | 116° |
| 2026-04-25 06:15 | 23.84582 | 60.03727 | 38911 ft | 528 kts | 116° |
| 2026-04-25 06:15 | 23.81302 | 60.10911 | 38919 ft | 528 kts | 116° |
| 2026-04-25 06:16 | 23.80217 | 60.13286 | 38919 ft | 529 kts | 116° |
| 2026-04-25 06:17 | 23.79122 | 60.15680 | 38916 ft | 529 kts | 116° |
| 2026-04-25 06:17 | 23.75840 | 60.22851 | 38916 ft | 527 kts | 116° |
| 2026-04-25 06:18 | 23.72563 | 60.29999 | 38911 ft | 526 kts | 116° |
| 2026-04-25 06:18 | 23.69285 | 60.37138 | 38919 ft | 526 kts | 116° |
| 2026-04-25 06:19 | 23.66024 | 60.44230 | 38918 ft | 526 kts | 116° |
| 2026-04-25 06:19 | 23.62742 | 60.51359 | 38912 ft | 526 kts | 116° |
| 2026-04-25 06:20 | 23.59459 | 60.58476 | 38916 ft | 525 kts | 116° |
| 2026-04-25 06:20 | 23.56181 | 60.65573 | 38916 ft | 525 kts | 116° |
| 2026-04-25 06:21 | 23.52892 | 60.72684 | 38915 ft | 525 kts | 116° |
| 2026-04-25 06:21 | 23.49600 | 60.79791 | 38916 ft | 525 kts | 116° |
| 2026-04-25 06:22 | 23.46281 | 60.86944 | 38910 ft | 525 kts | 116° |
| 2026-04-25 06:22 | 23.43008 | 60.93991 | 38917 ft | 525 kts | 116° |
| 2026-04-25 06:23 | 23.39706 | 61.01086 | 38919 ft | 525 kts | 116° |
| 2026-04-25 06:23 | 23.36403 | 61.08175 | 38919 ft | 525 kts | 116° |
| 2026-04-25 06:24 | 23.33157 | 61.15282 | 38913 ft | 523 kts | 112° |
| 2026-04-25 06:24 | 23.31309 | 61.22868 | 38916 ft | 518 kts | 96° |
| 2026-04-25 06:25 | 23.30495 | 61.30654 | 38917 ft | 518 kts | 93° |
| 2026-04-25 06:25 | 23.29844 | 61.38462 | 38926 ft | 518 kts | 93° |
| 2026-04-25 06:26 | 23.29187 | 61.46252 | 38925 ft | 517 kts | 93° |
| 2026-04-25 06:26 | 23.28500 | 61.54042 | 38913 ft | 517 kts | 94° |
| 2026-04-25 06:27 | 23.27798 | 61.61827 | 38917 ft | 517 kts | 94° |
| 2026-04-25 06:27 | 23.27090 | 61.69617 | 38920 ft | 517 kts | 94° |
| 2026-04-25 06:28 | 23.26379 | 61.77402 | 38924 ft | 517 kts | 94° |
| 2026-04-25 06:28 | 23.25666 | 61.85182 | 38922 ft | 517 kts | 94° |
| 2026-04-25 06:29 | 23.24948 | 61.92972 | 38922 ft | 517 kts | 94° |
| 2026-04-25 06:29 | 23.24227 | 62.00749 | 38916 ft | 516 kts | 94° |
| 2026-04-25 06:30 | 23.23510 | 62.08440 | 38925 ft | 514 kts | 94° |
| 2026-04-25 06:30 | 23.22785 | 62.16177 | 38923 ft | 514 kts | 94° |
| 2026-04-25 06:31 | 23.22057 | 62.23911 | 38928 ft | 514 kts | 94° |
| 2026-04-25 06:31 | 23.21325 | 62.31647 | 38927 ft | 515 kts | 94° |
| 2026-04-25 06:32 | 23.20588 | 62.39385 | 38921 ft | 515 kts | 94° |
| 2026-04-25 06:32 | 23.19847 | 62.47132 | 38920 ft | 515 kts | 94° |
| 2026-04-25 06:33 | 23.19103 | 62.54865 | 38928 ft | 515 kts | 94° |
| 2026-04-25 06:33 | 23.18355 | 62.62609 | 38919 ft | 515 kts | 94° |
| 2026-04-25 06:34 | 23.17603 | 62.70345 | 38924 ft | 515 kts | 94° |
| 2026-04-25 06:34 | 23.16847 | 62.78084 | 38925 ft | 515 kts | 94° |
| 2026-04-25 06:35 | 23.16088 | 62.85820 | 38923 ft | 515 kts | 94° |
| 2026-04-25 06:35 | 23.15324 | 62.93560 | 38923 ft | 515 kts | 94° |
| 2026-04-25 06:36 | 23.14557 | 63.01294 | 38926 ft | 515 kts | 94° |
| 2026-04-25 06:36 | 23.13787 | 63.09019 | 38926 ft | 514 kts | 94° |
| 2026-04-25 06:37 | 23.13014 | 63.16737 | 38929 ft | 514 kts | 95° |
| 2026-04-25 06:37 | 23.12236 | 63.24463 | 38920 ft | 515 kts | 95° |
| 2026-04-25 06:38 | 23.11454 | 63.32192 | 38923 ft | 515 kts | 95° |
| 2026-04-25 06:38 | 23.10801 | 63.38623 | 38925 ft | 515 kts | 95° |
| 2026-04-25 06:39 | 23.10012 | 63.46344 | 38923 ft | 515 kts | 95° |
| 2026-04-25 06:39 | 23.09219 | 63.54078 | 38926 ft | 515 kts | 95° |
| 2026-04-25 06:40 | 23.08423 | 63.61804 | 38921 ft | 515 kts | 95° |
| 2026-04-25 06:40 | 23.07492 | 63.70785 | 38918 ft | 515 kts | 95° |
| 2026-04-25 06:41 | 23.06817 | 63.77268 | 38921 ft | 515 kts | 95° |
| 2026-04-25 06:41 | 23.05910 | 63.84983 | 38924 ft | 516 kts | 100° |
| 2026-04-25 06:42 | 23.03702 | 63.92402 | 38919 ft | 517 kts | 110° |
| 2026-04-25 06:42 | 23.01014 | 63.99649 | 38916 ft | 518 kts | 112° |
| 2026-04-25 06:43 | 22.98271 | 64.06819 | 38919 ft | 518 kts | 112° |
| 2026-04-25 06:43 | 22.95519 | 64.14040 | 38918 ft | 517 kts | 112° |
| 2026-04-25 06:44 | 22.92786 | 64.21252 | 38917 ft | 517 kts | 112° |
| 2026-04-25 06:44 | 22.90054 | 64.28468 | 38920 ft | 517 kts | 112° |
| 2026-04-25 06:45 | 22.87320 | 64.35677 | 38924 ft | 517 kts | 112° |
| 2026-04-25 06:45 | 22.84583 | 64.42881 | 38907 ft | 516 kts | 112° |
| 2026-04-25 06:46 | 22.81847 | 64.50070 | 38916 ft | 515 kts | 112° |
| 2026-04-25 06:46 | 22.79114 | 64.57238 | 38911 ft | 514 kts | 112° |
| 2026-04-25 06:47 | 22.76379 | 64.64403 | 38908 ft | 514 kts | 112° |
| 2026-04-25 06:47 | 22.73646 | 64.71549 | 38914 ft | 515 kts | 112° |
| 2026-04-25 06:48 | 22.70899 | 64.78723 | 38916 ft | 515 kts | 112° |
| 2026-04-25 06:48 | 22.68172 | 64.85831 | 38909 ft | 515 kts | 112° |
| 2026-04-25 06:49 | 22.65423 | 64.92987 | 38914 ft | 514 kts | 112° |
| 2026-04-25 06:49 | 22.62673 | 65.00133 | 38906 ft | 514 kts | 112° |
| 2026-04-25 06:50 | 22.59922 | 65.07270 | 38913 ft | 513 kts | 112° |
| 2026-04-25 06:50 | 22.57178 | 65.14381 | 38910 ft | 512 kts | 112° |
| 2026-04-25 06:51 | 22.54430 | 65.21488 | 38902 ft | 512 kts | 112° |
| 2026-04-25 06:51 | 22.51680 | 65.28592 | 38913 ft | 512 kts | 112° |
| 2026-04-25 06:52 | 22.48925 | 65.35695 | 38917 ft | 511 kts | 112° |
| 2026-04-25 06:52 | 22.46175 | 65.42778 | 38913 ft | 511 kts | 112° |
| 2026-04-25 06:53 | 22.43420 | 65.49862 | 38914 ft | 511 kts | 112° |
| 2026-04-25 06:53 | 22.40663 | 65.56939 | 38909 ft | 511 kts | 112° |
| 2026-04-25 06:54 | 22.37903 | 65.64013 | 38912 ft | 510 kts | 112° |
| 2026-04-25 06:54 | 22.35148 | 65.71064 | 38913 ft | 510 kts | 112° |
| 2026-04-25 06:55 | 22.32405 | 65.78075 | 38904 ft | 510 kts | 112° |
| 2026-04-25 06:55 | 22.29626 | 65.85166 | 38910 ft | 510 kts | 112° |
| 2026-04-25 06:56 | 22.26860 | 65.92213 | 38911 ft | 510 kts | 112° |
| 2026-04-25 06:56 | 22.24111 | 65.99208 | 38910 ft | 509 kts | 112° |
| 2026-04-25 06:57 | 22.21339 | 66.06249 | 38912 ft | 509 kts | 112° |
| 2026-04-25 06:57 | 22.18570 | 66.13273 | 38912 ft | 509 kts | 112° |
| 2026-04-25 06:58 | 22.15795 | 66.20302 | 38917 ft | 508 kts | 112° |
| 2026-04-25 06:58 | 22.13022 | 66.27314 | 38917 ft | 508 kts | 112° |
| 2026-04-25 06:59 | 22.10248 | 66.34321 | 38911 ft | 508 kts | 112° |
| 2026-04-25 06:59 | 22.07476 | 66.41311 | 38910 ft | 507 kts | 112° |
| 2026-04-25 07:00 | 22.04692 | 66.48322 | 38915 ft | 507 kts | 112° |
| 2026-04-25 07:00 | 22.01916 | 66.55306 | 38913 ft | 508 kts | 112° |
| 2026-04-25 07:01 | 21.99129 | 66.62303 | 38915 ft | 507 kts | 112° |
| 2026-04-25 07:01 | 21.96347 | 66.69279 | 39188 ft | 507 kts | 112° |
| 2026-04-25 07:01 | 21.94953 | 66.72769 | 39449 ft | 507 kts | 112° |
| 2026-04-25 07:02 | 21.93560 | 66.76257 | 39683 ft | 507 kts | 112° |
| 2026-04-25 07:02 | 21.92164 | 66.79750 | 39914 ft | 507 kts | 112° |
| 2026-04-25 07:02 | 21.90785 | 66.83195 | 40144 ft | 508 kts | 112° |
| 2026-04-25 07:02 | 21.89389 | 66.86684 | 40360 ft | 508 kts | 112° |
| 2026-04-25 07:03 | 21.87989 | 66.90178 | 40577 ft | 508 kts | 112° |
| 2026-04-25 07:03 | 21.86570 | 66.93717 | 40816 ft | 508 kts | 112° |
| 2026-04-25 07:03 | 21.85167 | 66.97214 | 40898 ft | 509 kts | 112° |
| 2026-04-25 07:04 | 21.82380 | 67.04152 | 40909 ft | 508 kts | 112° |
| 2026-04-25 07:04 | 21.79576 | 67.11125 | 40911 ft | 508 kts | 112° |
| 2026-04-25 07:05 | 21.76763 | 67.18106 | 40908 ft | 508 kts | 112° |
| 2026-04-25 07:05 | 21.73952 | 67.25077 | 40912 ft | 508 kts | 112° |
| 2026-04-25 07:06 | 21.71136 | 67.32046 | 40913 ft | 508 kts | 112° |
| 2026-04-25 07:06 | 21.68314 | 67.39024 | 40907 ft | 508 kts | 112° |
| 2026-04-25 07:07 | 21.65493 | 67.45985 | 40908 ft | 508 kts | 112° |
| 2026-04-25 07:07 | 21.62668 | 67.52950 | 40909 ft | 508 kts | 112° |
| 2026-04-25 07:08 | 21.59840 | 67.59911 | 40909 ft | 508 kts | 112° |
| 2026-04-25 07:08 | 21.57008 | 67.66871 | 40908 ft | 508 kts | 112° |
| 2026-04-25 07:09 | 21.54174 | 67.73827 | 40901 ft | 508 kts | 112° |
| 2026-04-25 07:09 | 21.51355 | 67.80738 | 40906 ft | 508 kts | 112° |
| 2026-04-25 07:10 | 21.48516 | 67.87687 | 40906 ft | 508 kts | 112° |
| 2026-04-25 07:10 | 21.45673 | 67.94634 | 40904 ft | 508 kts | 112° |
| 2026-04-25 07:11 | 21.42811 | 68.01620 | 40906 ft | 508 kts | 112° |
| 2026-04-25 07:11 | 21.39981 | 68.08519 | 40906 ft | 508 kts | 113° |
| 2026-04-25 07:12 | 21.37132 | 68.15453 | 40905 ft | 508 kts | 113° |
| 2026-04-25 07:12 | 21.32849 | 68.25859 | 40907 ft | 508 kts | 113° |
| 2026-04-25 07:13 | 21.29994 | 68.32786 | 40904 ft | 508 kts | 113° |
| 2026-04-25 07:13 | 21.27135 | 68.39711 | 40905 ft | 508 kts | 113° |
| 2026-04-25 07:14 | 21.24273 | 68.46633 | 40906 ft | 508 kts | 113° |
| 2026-04-25 07:14 | 21.21407 | 68.53556 | 40904 ft | 508 kts | 113° |
| 2026-04-25 07:15 | 21.18540 | 68.60474 | 40902 ft | 508 kts | 113° |
| 2026-04-25 07:15 | 21.15669 | 68.67388 | 40903 ft | 508 kts | 113° |
| 2026-04-25 07:16 | 21.12798 | 68.74296 | 40903 ft | 508 kts | 113° |
| 2026-04-25 07:16 | 21.09920 | 68.81209 | 40900 ft | 508 kts | 113° |
| 2026-04-25 07:17 | 21.07043 | 68.88113 | 40897 ft | 508 kts | 113° |
| 2026-04-25 07:17 | 21.04161 | 68.95017 | 40897 ft | 508 kts | 113° |
| 2026-04-25 07:18 | 21.01279 | 69.01913 | 40897 ft | 508 kts | 113° |
| 2026-04-25 07:18 | 20.98412 | 69.08767 | 40899 ft | 508 kts | 113° |
| 2026-04-25 07:19 | 20.96004 | 69.15850 | 40896 ft | 507 kts | 107° |
| 2026-04-25 07:19 | 20.93818 | 69.23023 | 40898 ft | 507 kts | 107° |
| 2026-04-25 07:20 | 20.91666 | 69.30203 | 40895 ft | 507 kts | 107° |
| 2026-04-25 07:20 | 20.89511 | 69.37372 | 40899 ft | 507 kts | 107° |
| 2026-04-25 07:21 | 20.87337 | 69.44561 | 40895 ft | 512 kts | 107° |
| 2026-04-25 07:21 | 20.85124 | 69.51856 | 40896 ft | 518 kts | 107° |
| 2026-04-25 07:22 | 20.82894 | 69.59194 | 40895 ft | 519 kts | 107° |
| 2026-04-25 07:22 | 20.80663 | 69.66520 | 40894 ft | 518 kts | 107° |
| 2026-04-25 07:23 | 20.78430 | 69.73845 | 40893 ft | 518 kts | 107° |
| 2026-04-25 07:23 | 20.76193 | 69.81169 | 40892 ft | 518 kts | 107° |
| 2026-04-25 07:24 | 20.73953 | 69.88491 | 40894 ft | 518 kts | 107° |
| 2026-04-25 07:24 | 20.71712 | 69.95806 | 40889 ft | 519 kts | 107° |
| 2026-04-25 07:25 | 20.69463 | 70.03133 | 40889 ft | 519 kts | 107° |
| 2026-04-25 07:25 | 20.67215 | 70.10445 | 40886 ft | 519 kts | 107° |
| 2026-04-25 07:26 | 20.64961 | 70.17765 | 40887 ft | 519 kts | 107° |
| 2026-04-25 07:26 | 20.62707 | 70.25071 | 40880 ft | 518 kts | 107° |
| 2026-04-25 07:27 | 20.60447 | 70.32387 | 40887 ft | 518 kts | 107° |
| 2026-04-25 07:27 | 20.58202 | 70.39641 | 40887 ft | 518 kts | 107° |
| 2026-04-25 07:28 | 20.55940 | 70.46936 | 40881 ft | 518 kts | 107° |
| 2026-04-25 07:28 | 20.53674 | 70.54234 | 40884 ft | 518 kts | 108° |
| 2026-04-25 07:29 | 20.51771 | 70.60352 | 40883 ft | 518 kts | 108° |
| 2026-04-25 07:29 | 20.49501 | 70.67643 | 40879 ft | 518 kts | 108° |
| 2026-04-25 07:30 | 20.47227 | 70.74931 | 40881 ft | 518 kts | 108° |
| 2026-04-25 07:30 | 20.44948 | 70.82224 | 40885 ft | 518 kts | 108° |
| 2026-04-25 07:31 | 20.42667 | 70.89513 | 40889 ft | 518 kts | 108° |
| 2026-04-25 07:31 | 20.40384 | 70.96796 | 40882 ft | 518 kts | 108° |
| 2026-04-25 07:32 | 20.38094 | 71.04090 | 40878 ft | 519 kts | 108° |
| 2026-04-25 07:32 | 20.35815 | 71.11335 | 40878 ft | 519 kts | 108° |
| 2026-04-25 07:33 | 20.33516 | 71.18633 | 40876 ft | 519 kts | 108° |
| 2026-04-25 07:33 | 20.31216 | 71.25924 | 40875 ft | 519 kts | 108° |
| 2026-04-25 07:34 | 20.28911 | 71.33217 | 40874 ft | 519 kts | 108° |
| 2026-04-25 07:34 | 20.26604 | 71.40505 | 40876 ft | 519 kts | 108° |
| 2026-04-25 07:35 | 20.24293 | 71.47795 | 40873 ft | 519 kts | 108° |
| 2026-04-25 07:35 | 20.21812 | 71.55023 | 40873 ft | 520 kts | 116° |
| 2026-04-25 07:36 | 20.19948 | 71.58309 | 40870 ft | 520 kts | 127° |
| 2026-04-25 07:36 | 20.17618 | 71.61250 | 40870 ft | 520 kts | 132° |
| 2026-04-25 07:36 | 20.12720 | 71.66929 | 40871 ft | 521 kts | 133° |
| 2026-04-25 07:37 | 20.10296 | 71.69720 | 40473 ft | 505 kts | 133° |
| 2026-04-25 07:37 | 20.07929 | 71.72445 | 39453 ft | 501 kts | 133° |
| 2026-04-25 07:37 | 20.05557 | 71.75174 | 38108 ft | 503 kts | 133° |
| 2026-04-25 07:37 | 20.03175 | 71.77912 | 36624 ft | 504 kts | 133° |
| 2026-04-25 07:38 | 20.00796 | 71.80646 | 35267 ft | 503 kts | 133° |
| 2026-04-25 07:38 | 19.98429 | 71.83365 | 33949 ft | 500 kts | 133° |
| 2026-04-25 07:38 | 19.96071 | 71.86072 | 32364 ft | 497 kts | 133° |
| 2026-04-25 07:38 | 19.93727 | 71.88762 | 31010 ft | 493 kts | 133° |
| 2026-04-25 07:39 | 19.91430 | 71.91396 | 30064 ft | 479 kts | 133° |
| 2026-04-25 07:39 | 19.89200 | 71.93955 | 29006 ft | 479 kts | 133° |
| 2026-04-25 07:39 | 19.86908 | 71.96580 | 28278 ft | 476 kts | 133° |
| 2026-04-25 07:39 | 19.84701 | 71.99110 | 27633 ft | 463 kts | 134° |
| 2026-04-25 07:40 | 19.82498 | 72.01633 | 26959 ft | 465 kts | 134° |
| 2026-04-25 07:40 | 19.80306 | 72.04141 | 26269 ft | 461 kts | 133° |
| 2026-04-25 07:40 | 19.78163 | 72.06592 | 25598 ft | 447 kts | 133° |
| 2026-04-25 07:40 | 19.75965 | 72.08875 | 24920 ft | 448 kts | 137° |
| 2026-04-25 07:41 | 19.73656 | 72.11086 | 24253 ft | 445 kts | 137° |
| 2026-04-25 07:41 | 19.71387 | 72.13236 | 23609 ft | 431 kts | 137° |
| 2026-04-25 07:41 | 19.69145 | 72.15362 | 22885 ft | 434 kts | 137° |
| 2026-04-25 07:41 | 19.66896 | 72.17497 | 22199 ft | 433 kts | 137° |
| 2026-04-25 07:42 | 19.64658 | 72.19621 | 21546 ft | 430 kts | 137° |
| 2026-04-25 07:42 | 19.62440 | 72.21725 | 20885 ft | 426 kts | 137° |
| 2026-04-25 07:42 | 19.60247 | 72.23806 | 20222 ft | 422 kts | 137° |
| 2026-04-25 07:42 | 19.58066 | 72.25875 | 19546 ft | 418 kts | 136° |
| 2026-04-25 07:43 | 19.55906 | 72.27922 | 18873 ft | 415 kts | 136° |
| 2026-04-25 07:43 | 19.53761 | 72.29956 | 18184 ft | 412 kts | 136° |
| 2026-04-25 07:43 | 19.51636 | 72.31970 | 17428 ft | 406 kts | 136° |
| 2026-04-25 07:43 | 19.49567 | 72.33929 | 16755 ft | 395 kts | 136° |
| 2026-04-25 07:44 | 19.47514 | 72.35874 | 16076 ft | 396 kts | 136° |
| 2026-04-25 07:44 | 19.45465 | 72.37815 | 15392 ft | 391 kts | 136° |
| 2026-04-25 07:44 | 19.43477 | 72.39695 | 14758 ft | 373 kts | 137° |
| 2026-04-25 07:44 | 19.41584 | 72.41484 | 14086 ft | 356 kts | 137° |
| 2026-04-25 07:45 | 19.39788 | 72.43184 | 13856 ft | 343 kts | 137° |
| 2026-04-25 07:45 | 19.37998 | 72.44878 | 13740 ft | 346 kts | 137° |
| 2026-04-25 07:45 | 19.36203 | 72.46576 | 13623 ft | 345 kts | 137° |
| 2026-04-25 07:45 | 19.34415 | 72.48266 | 13494 ft | 344 kts | 137° |
| 2026-04-25 07:46 | 19.32656 | 72.49927 | 13358 ft | 343 kts | 137° |
| 2026-04-25 07:46 | 19.30876 | 72.51608 | 13231 ft | 342 kts | 137° |
| 2026-04-25 07:46 | 19.29099 | 72.53285 | 13085 ft | 342 kts | 137° |
| 2026-04-25 07:46 | 19.27327 | 72.54957 | 12937 ft | 341 kts | 138° |
| 2026-04-25 07:47 | 19.25548 | 72.56636 | 12736 ft | 341 kts | 138° |
| 2026-04-25 07:47 | 19.23791 | 72.58292 | 12313 ft | 333 kts | 137° |
| 2026-04-25 07:47 | 19.22244 | 72.60017 | 11937 ft | 320 kts | 123° |
| 2026-04-25 07:47 | 19.21520 | 72.62213 | 11745 ft | 320 kts | 95° |
| 2026-04-25 07:48 | 19.21455 | 72.64541 | 11705 ft | 307 kts | 89° |
| 2026-04-25 07:48 | 19.21481 | 72.66709 | 11679 ft | 290 kts | 89° |
| 2026-04-25 07:48 | 19.21499 | 72.68854 | 11658 ft | 292 kts | 89° |
| 2026-04-25 07:48 | 19.21505 | 72.70995 | 11629 ft | 291 kts | 90° |
| 2026-04-25 07:49 | 19.21503 | 72.73143 | 11597 ft | 292 kts | 90° |
| 2026-04-25 07:49 | 19.21495 | 72.75294 | 11553 ft | 292 kts | 90° |
| 2026-04-25 07:49 | 19.21485 | 72.77433 | 11517 ft | 291 kts | 90° |
| 2026-04-25 07:49 | 19.21473 | 72.79570 | 11471 ft | 291 kts | 90° |
| 2026-04-25 07:50 | 19.21461 | 72.81715 | 11432 ft | 291 kts | 90° |
| 2026-04-25 07:50 | 19.21446 | 72.83849 | 11394 ft | 287 kts | 90° |
| 2026-04-25 07:50 | 19.21433 | 72.85904 | 11348 ft | 273 kts | 90° |
| 2026-04-25 07:50 | 19.21420 | 72.87902 | 11321 ft | 272 kts | 90° |
| 2026-04-25 07:51 | 19.21407 | 72.89906 | 11278 ft | 272 kts | 90° |
| 2026-04-25 07:51 | 19.21393 | 72.91904 | 11251 ft | 271 kts | 90° |
| 2026-04-25 07:51 | 19.21378 | 72.93891 | 11206 ft | 271 kts | 90° |
| 2026-04-25 07:51 | 19.21364 | 72.95892 | 11173 ft | 272 kts | 90° |
| 2026-04-25 07:52 | 19.21349 | 72.97884 | 11134 ft | 270 kts | 90° |
| 2026-04-25 07:52 | 19.21334 | 72.99858 | 11097 ft | 267 kts | 90° |
| 2026-04-25 07:52 | 19.21318 | 73.01781 | 11047 ft | 256 kts | 90° |
| 2026-04-25 07:52 | 19.21304 | 73.03671 | 11037 ft | 258 kts | 90° |
| 2026-04-25 07:53 | 19.21289 | 73.05564 | 11001 ft | 256 kts | 89° |
| 2026-04-25 07:53 | 19.21275 | 73.07447 | 10964 ft | 257 kts | 90° |
| 2026-04-25 07:53 | 19.21260 | 73.09337 | 10931 ft | 257 kts | 90° |
| 2026-04-25 07:53 | 19.21245 | 73.11227 | 10894 ft | 257 kts | 90° |
| 2026-04-25 07:54 | 19.21229 | 73.13119 | 10868 ft | 256 kts | 89° |
| 2026-04-25 07:54 | 19.21215 | 73.14996 | 10807 ft | 256 kts | 90° |
| 2026-04-25 07:54 | 19.21224 | 73.16880 | 10524 ft | 257 kts | 88° |
| 2026-04-25 07:54 | 19.21250 | 73.18776 | 10145 ft | 257 kts | 88° |
| 2026-04-25 07:55 | 19.21275 | 73.20650 | 9939 ft | 251 kts | 88° |
| 2026-04-25 07:55 | 19.21297 | 73.22474 | 9655 ft | 247 kts | 88° |
| 2026-04-25 07:55 | 19.21317 | 73.24291 | 9294 ft | 247 kts | 88° |
| 2026-04-25 07:55 | 19.21246 | 73.26098 | 8963 ft | 246 kts | 98° |
| 2026-04-25 07:56 | 19.20556 | 73.27727 | 8648 ft | 246 kts | 128° |
| 2026-04-25 07:56 | 19.19177 | 73.28737 | 8412 ft | 244 kts | 159° |
| 2026-04-25 07:56 | 19.17496 | 73.28845 | 8103 ft | 247 kts | 190° |
| 2026-04-25 07:56 | 19.15996 | 73.27997 | 7818 ft | 246 kts | 224° |
| 2026-04-25 07:57 | 19.15094 | 73.26482 | 7516 ft | 245 kts | 248° |
| 2026-04-25 07:57 | 19.14550 | 73.24773 | 7123 ft | 246 kts | 252° |
| 2026-04-25 07:57 | 19.14053 | 73.23040 | 6767 ft | 244 kts | 252° |
| 2026-04-25 07:57 | 19.13562 | 73.21354 | 6588 ft | 234 kts | 252° |
| 2026-04-25 07:58 | 19.13084 | 73.19742 | 6304 ft | 233 kts | 251° |
| 2026-04-25 07:58 | 19.12597 | 73.18121 | 6137 ft | 227 kts | 251° |
| 2026-04-25 07:58 | 19.12126 | 73.16566 | 5989 ft | 217 kts | 251° |
| 2026-04-25 07:58 | 19.11671 | 73.15070 | 5725 ft | 213 kts | 251° |
| 2026-04-25 07:59 | 19.11215 | 73.13580 | 5382 ft | 213 kts | 251° |
| 2026-04-25 07:59 | 19.10754 | 73.12080 | 4953 ft | 218 kts | 251° |
| 2026-04-25 07:59 | 19.10277 | 73.10527 | 4416 ft | 226 kts | 251° |
| 2026-04-25 07:59 | 19.09781 | 73.08916 | 3888 ft | 234 kts | 252° |
| 2026-04-25 08:00 | 19.09308 | 73.07266 | 3406 ft | 234 kts | 259° |
| 2026-04-25 08:00 | 19.09143 | 73.05590 | 3088 ft | 221 kts | 272° |
| 2026-04-25 08:00 | 19.09131 | 73.04043 | 2832 ft | 201 kts | 272° |
| 2026-04-25 08:00 | 19.09100 | 73.02634 | 2626 ft | 185 kts | 272° |
| 2026-04-25 08:01 | 19.09076 | 73.01318 | 2407 ft | 174 kts | 271° |
| 2026-04-25 08:01 | 19.09056 | 73.00081 | 2202 ft | 163 kts | 272° |
| 2026-04-25 08:01 | 19.09039 | 72.98944 | 2010 ft | 150 kts | 272° |
| 2026-04-25 08:01 | 19.09023 | 72.97881 | 1822 ft | 141 kts | 273° |
| 2026-04-25 08:02 | 19.09011 | 72.96845 | 1673 ft | 142 kts | 271° |
| 2026-04-25 08:02 | 19.08997 | 72.95802 | 1496 ft | 142 kts | 271° |
| 2026-04-25 08:02 | 19.08981 | 72.94764 | 1289 ft | 140 kts | 272° |
| 2026-04-25 08:02 | 19.08967 | 72.93719 | 1122 ft | 144 kts | 274° |
| 2026-04-25 08:03 | 19.08953 | 72.92659 | 943 ft | 143 kts | 274° |
| 2026-04-25 08:03 | 19.08938 | 72.91615 | 779 ft | 140 kts | 272° |
| 2026-04-25 08:03 | 19.08925 | 72.90593 | 610 ft | 135 kts | 271° |
| 2026-04-25 08:03 | 19.08919 | 72.89614 | 470 ft | 134 kts | 271° |
| 2026-04-25 08:04 | 19.08913 | 72.88642 | 285 ft | 132 kts | 270° |
| 2026-04-25 08:04 | 19.08886 | 72.87682 | 104 ft | 129 kts | 269° |
| 2026-04-25 08:04 | 19.08870 | 72.86791 | 54 ft | 118 kts | 270° |
| 2026-04-25 08:04 | 19.08862 | 72.86083 | 53 ft | 61 kts | 269° |
| 2026-04-25 08:05 | 19.08859 | 72.85924 | 54 ft | 1 kts | 270° |
| 2026-04-25 08:05 | 19.08860 | 72.85788 | 55 ft | 27 kts | 273° |
| 2026-04-25 08:05 | 19.08905 | 72.85598 | 50 ft | 26 kts | 293° |
| 2026-04-25 08:05 | 19.08982 | 72.85497 | 48 ft | 16 kts | 360° |
| 2026-04-25 08:06 | 19.09024 | 72.85590 | 50 ft | 16 kts | 86° |
| 2026-04-25 08:06 | 19.09030 | 72.85723 | 55 ft | 20 kts | 89° |
| 2026-04-25 08:06 | 19.09031 | 72.85882 | 55 ft | 23 kts | 89° |
| 2026-04-25 08:06 | 19.09033 | 72.86064 | 55 ft | 26 kts | 89° |
| 2026-04-25 08:07 | 19.09036 | 72.86268 | 55 ft | 29 kts | 89° |
| 2026-04-25 08:07 | 19.09040 | 72.86489 | 49 ft | 31 kts | 89° |
| 2026-04-25 08:07 | 19.09041 | 72.86552 | 50 ft | 2 kts | 89° |
| 2026-04-25 08:07 | 19.09042 | 72.86637 | 50 ft | 15 kts | 90° |
| 2026-04-25 08:08 | 19.09042 | 72.86758 | 51 ft | 18 kts | 89° |
| 2026-04-25 08:08 | 19.09044 | 72.86907 | 56 ft | 22 kts | 89° |
| 2026-04-25 08:08 | 19.09046 | 72.87082 | 54 ft | 26 kts | 89° |
| 2026-04-25 08:08 | 19.09058 | 72.87224 | 49 ft | 12 kts | 62° |
| 2026-04-25 08:09 | 19.09139 | 72.87261 | 50 ft | 15 kts | 6° |
| 2026-04-25 08:09 | 19.09223 | 72.87210 | 51 ft | 16 kts | 287° |
| 2026-04-25 08:09 | 19.09231 | 72.87088 | 50 ft | 16 kts | 266° |
| 2026-04-25 08:09 | 19.09250 | 72.87033 | 52 ft | 5 kts | 352° |
| 2026-04-25 08:10 | 19.09274 | 72.87051 | 54 ft | 6 kts | 44° |
| 2026-04-25 08:10 | 19.09299 | 72.87073 | 48 ft | 0 kts | 36° |
| 2026-04-25 08:10 | 19.09302 | 72.87075 | 51 ft | 2 kts | 36° |
| 2026-04-25 08:10 | 19.09317 | 72.87086 | 49 ft | 0 kts | 34° |
| 2026-04-25 08:11 | 19.09316 | 72.87086 | 49 ft | 0 kts | 34° |
| 2026-04-25 08:11 | 19.09316 | 72.87085 | 49 ft | 0 kts | 34° |